createdAt,value
2018-09-01T00:00:41.697Z,95832
2018-09-01T00:01:44.129Z,95831.3
2018-09-01T00:02:46.322Z,95829
2018-09-01T00:03:48.758Z,95829.2
2018-09-01T00:04:50.891Z,95827.6
2018-09-01T00:05:53.053Z,95825
2018-09-01T00:06:55.487Z,95822.8
2018-09-01T00:07:57.627Z,95824.6
2018-09-01T00:09:00.086Z,95827.4
2018-09-01T00:10:02.527Z,95829
2018-09-01T00:11:05.081Z,95826
2018-09-01T00:12:07.517Z,95826.3
2018-09-01T00:13:09.948Z,95830.5
2018-09-01T00:14:12.367Z,95824.3
2018-09-01T00:15:14.806Z,95824.9
2018-09-01T00:16:17.246Z,95824.9
2018-09-01T00:17:19.673Z,95818.6
2018-09-01T00:18:21.826Z,95823.9
2018-09-01T00:19:24.266Z,95825
2018-09-01T00:20:26.428Z,95823.8
2018-09-01T00:21:28.859Z,95822.9
2018-09-01T00:22:31.290Z,95821.7
2018-09-01T00:23:33.723Z,95821.8
2018-09-01T00:24:36.163Z,95822.8
2018-09-01T00:25:38.600Z,95824
2018-09-01T00:26:41.025Z,95814.9
2018-09-01T00:27:43.458Z,95825.9
2018-09-01T00:28:46.781Z,95824.1
2018-09-01T00:29:48.996Z,95821.6
2018-09-01T00:30:51.452Z,95821.8
2018-09-01T00:31:53.878Z,95825
2018-09-01T00:32:56.304Z,95827.8
2018-09-01T00:33:58.501Z,95822.5
2018-09-01T00:35:00.690Z,95824
2018-09-01T00:36:03.165Z,95823.1
2018-09-01T00:37:05.595Z,95822.7
2018-09-01T00:38:07.766Z,95828.2
2018-09-01T00:39:10.213Z,95820.1
2018-09-01T00:40:12.645Z,95828.2
2018-09-01T00:41:14.806Z,95823.7
2018-09-01T00:42:17.246Z,95824.2
2018-09-01T00:43:19.686Z,95832.3
2018-09-01T00:44:22.146Z,95835.9
2018-09-01T00:45:24.583Z,95839.1
2018-09-01T00:46:26.748Z,95841.3
2018-09-01T00:47:29.195Z,95844.7
2018-09-01T00:48:31.634Z,95848.7
2018-09-01T00:49:34.080Z,95849.9
2018-09-01T00:50:36.514Z,95848.6
2018-09-01T00:51:38.947Z,95851.6
2018-09-01T00:52:41.394Z,95847.2
2018-09-01T00:53:43.571Z,95845
2018-09-01T00:54:45.991Z,95846.1
2018-09-01T00:55:48.178Z,95848.1
2018-09-01T00:56:50.601Z,95848.3
2018-09-01T00:57:52.762Z,95845.5
2018-09-01T00:58:55.215Z,95848.1
2018-09-01T00:59:57.371Z,95850
2018-09-01T01:00:59.814Z,95845.4
2018-09-01T01:02:01.972Z,95842.6
2018-09-01T01:03:04.406Z,95845.7
2018-09-01T01:04:06.839Z,95844
2018-09-01T01:05:09.296Z,95840.3
2018-09-01T01:06:11.723Z,95840.8
2018-09-01T01:07:14.165Z,95840.3
2018-09-01T01:08:16.626Z,95831.5
2018-09-01T01:09:19.047Z,95835
2018-09-01T01:10:21.498Z,95831.7
2018-09-01T01:11:23.971Z,95829.2
2018-09-01T01:12:26.465Z,95830
2018-09-01T01:13:28.924Z,95835.6
2018-09-01T01:14:30.787Z,95829.2
2018-09-01T01:15:33.246Z,95826.8
2018-09-01T01:16:35.671Z,95828.2
2018-09-01T01:17:38.115Z,95822.9
2018-09-01T01:18:40.549Z,95821.6
2018-09-01T01:19:42.999Z,95822
2018-09-01T01:20:45.194Z,95818.3
2018-09-01T01:21:47.644Z,95815.7
2018-09-01T01:22:50.072Z,95817.3
2018-09-01T01:23:52.493Z,95819.8
2018-09-01T01:24:54.925Z,95818.3
2018-09-01T01:25:57.356Z,95814.6
2018-09-01T01:26:59.828Z,95816
2018-09-01T01:28:02.269Z,95812.8
2018-09-01T01:29:04.718Z,95814.7
2018-09-01T01:30:07.177Z,95816.3
2018-09-01T01:31:09.600Z,95812.9
2018-09-01T01:32:11.765Z,95811.2
2018-09-01T01:33:14.191Z,95811
2018-09-01T01:34:16.848Z,95810.3
2018-09-01T01:35:19.281Z,95813.4
2018-09-01T01:36:21.712Z,95808.8
2018-09-01T01:37:24.143Z,95808.6
2018-09-01T01:38:26.573Z,95813
2018-09-01T01:39:29.001Z,95807.9
2018-09-01T01:40:31.436Z,95810.9
2018-09-01T01:41:33.874Z,95812.5
2018-09-01T01:42:36.315Z,95807.1
2018-09-01T01:43:38.763Z,95806.4
2018-09-01T01:44:41.204Z,95808.9
2018-09-01T01:45:43.664Z,95805
2018-09-01T01:46:46.091Z,95806.8
2018-09-01T01:47:48.527Z,95803.8
2018-09-01T01:48:50.946Z,95807.2
2018-09-01T01:49:53.378Z,95804.1
2018-09-01T01:50:55.546Z,95810
2018-09-01T01:51:57.995Z,95807.9
2018-09-01T01:53:00.436Z,95809.4
2018-09-01T01:54:02.596Z,95807.3
2018-09-01T01:55:05.038Z,95812.5
2018-09-01T01:56:07.485Z,95815.5
2018-09-01T01:57:09.922Z,95813.2
2018-09-01T01:58:12.072Z,95814.6
2018-09-01T01:59:14.218Z,95818.3
2018-09-01T02:00:16.668Z,95818.9
2018-09-01T02:01:19.110Z,95818.4
2018-09-01T02:02:21.540Z,95818.9
2018-09-01T02:03:23.981Z,95816.9
2018-09-01T02:04:26.406Z,95819.7
2018-09-01T02:05:28.837Z,95821.2
2018-09-01T02:06:31.265Z,95822.7
2018-09-01T02:07:33.717Z,95824.7
2018-09-01T02:08:36.150Z,95826.5
2018-09-01T02:09:38.579Z,95824.3
2018-09-01T02:10:40.731Z,95828.6
2018-09-01T02:11:42.908Z,95827.1
2018-09-01T02:12:45.345Z,95826.6
2018-09-01T02:13:47.772Z,95821.8
2018-09-01T02:14:50.206Z,95819.1
2018-09-01T02:15:52.635Z,95819.5
2018-09-01T02:16:54.807Z,95819.3
2018-09-01T02:17:57.229Z,95822.7
2018-09-01T02:18:59.695Z,95821.8
2018-09-01T02:20:02.133Z,95821.8
2018-09-01T02:21:04.024Z,95822
2018-09-01T02:22:06.453Z,95824.3
2018-09-01T02:23:08.913Z,95824
2018-09-01T02:24:11.349Z,95823.3
2018-09-01T02:25:13.536Z,95825.7
2018-09-01T02:26:15.974Z,95821.5
2018-09-01T02:27:18.406Z,95821.6
2018-09-01T02:28:20.849Z,95823.3
2018-09-01T02:29:23.290Z,95823.3
2018-09-01T02:30:25.722Z,95825.9
2018-09-01T02:31:28.171Z,95826.9
2018-09-01T02:32:30.324Z,95823.3
2018-09-01T02:33:32.753Z,95827.6
2018-09-01T02:34:34.643Z,95829.8
2018-09-01T02:35:37.067Z,95828.8
2018-09-01T02:36:39.287Z,95830.4
2018-09-01T02:37:41.724Z,95830.1
2018-09-01T02:38:44.165Z,95829.3
2018-09-01T02:39:46.593Z,95833
2018-09-01T02:40:49.032Z,95831.1
2018-09-01T02:41:51.464Z,95833.2
2018-09-01T02:42:53.895Z,95837.1
2018-09-01T02:43:56.335Z,95835.4
2018-09-01T02:44:58.780Z,95834.3
2018-09-01T02:46:01.223Z,95833.7
2018-09-01T02:47:03.703Z,95832.4
2018-09-01T02:48:06.145Z,95833.9
2018-09-01T02:49:08.324Z,95831.8
2018-09-01T02:50:10.754Z,95835.2
2018-09-01T02:51:12.896Z,95835
2018-09-01T02:52:15.320Z,95836.2
2018-09-01T02:53:17.214Z,95833.4
2018-09-01T02:54:19.637Z,95832.2
2018-09-01T02:55:22.074Z,95833.8
2018-09-01T02:56:24.513Z,95831.1
2018-09-01T02:57:26.944Z,95831.6
2018-09-01T02:58:29.387Z,95833
2018-09-01T02:59:31.866Z,95834.7
2018-09-01T03:00:34.303Z,95832.9
2018-09-01T03:01:36.723Z,95835.6
2018-09-01T03:02:39.158Z,95832.1
2018-09-01T03:03:41.317Z,95832.3
2018-09-01T03:04:43.756Z,95833.6
2018-09-01T03:05:46.185Z,95832.2
2018-09-01T03:06:48.635Z,95831.3
2018-09-01T03:07:51.090Z,95840.3
2018-09-01T03:08:53.526Z,95836.9
2018-09-01T03:09:55.951Z,95835.8
2018-09-01T03:10:58.383Z,95839.2
2018-09-01T03:12:00.823Z,95839.5
2018-09-01T03:13:03.264Z,95839.4
2018-09-01T03:14:05.696Z,95841.4
2018-09-01T03:15:08.124Z,95839.5
2018-09-01T03:16:10.552Z,95838.4
2018-09-01T03:17:12.992Z,95836.5
2018-09-01T03:18:15.435Z,95840.1
2018-09-01T03:19:17.875Z,95840.3
2018-09-01T03:20:20.055Z,95838.8
2018-09-01T03:21:22.506Z,95841.6
2018-09-01T03:22:24.943Z,95835.6
2018-09-01T03:23:27.107Z,95840.4
2018-09-01T03:24:29.560Z,95837.6
2018-09-01T03:25:32.004Z,95832.6
2018-09-01T03:26:34.456Z,95834.4
2018-09-01T03:27:36.581Z,95834.5
2018-09-01T03:28:39.018Z,95835
2018-09-01T03:29:41.452Z,95832.4
2018-09-01T03:30:43.887Z,95836.6
2018-09-01T03:31:46.331Z,95835.6
2018-09-01T03:32:48.763Z,95835.5
2018-09-01T03:33:51.188Z,95838.6
2018-09-01T03:34:53.610Z,95839.7
2018-09-01T03:35:55.759Z,95834.8
2018-09-01T03:36:58.193Z,95839.4
2018-09-01T03:38:00.636Z,95839.9
2018-09-01T03:39:02.792Z,95836.6
2018-09-01T03:40:04.975Z,95835.8
2018-09-01T03:41:07.404Z,95835.4
2018-09-01T03:42:09.832Z,95839.4
2018-09-01T03:43:11.973Z,95842
2018-09-01T03:44:14.410Z,95840.4
2018-09-01T03:45:16.849Z,95844.4
2018-09-01T03:46:19.296Z,95845.8
2018-09-01T03:47:21.727Z,95844.8
2018-09-01T03:48:24.160Z,95843.7
2018-09-01T03:49:26.595Z,95843
2018-09-01T03:50:28.458Z,95845
2018-09-01T03:51:30.898Z,95839.8
2018-09-01T03:52:33.324Z,95843.3
2018-09-01T03:53:35.773Z,95841.3
2018-09-01T03:54:37.933Z,95842.7
2018-09-01T03:55:40.093Z,95841
2018-09-01T03:56:42.527Z,95840.3
2018-09-01T03:57:44.692Z,95837.3
2018-09-01T03:58:47.120Z,95837.1
2018-09-01T03:59:49.574Z,95833.4
2018-09-01T04:00:52.000Z,95838.1
2018-09-01T04:01:54.424Z,95832.5
2018-09-01T04:02:56.852Z,95830.5
2018-09-01T04:03:59.280Z,95828.2
2018-09-01T04:05:01.716Z,95825.6
2018-09-01T04:06:04.156Z,95823
2018-09-01T04:07:06.590Z,95821.7
2018-09-01T04:08:09.016Z,95815.6
2018-09-01T04:09:11.442Z,95820.8
2018-09-01T04:10:13.874Z,95818.7
2018-09-01T04:11:16.326Z,95813.5
2018-09-01T04:12:18.764Z,95814.3
2018-09-01T04:13:21.203Z,95814.6
2018-09-01T04:14:23.656Z,95812.9
2018-09-01T04:15:26.104Z,95820
2018-09-01T04:16:28.532Z,95818.1
2018-09-01T04:17:30.964Z,95820.7
2018-09-01T04:18:33.397Z,95820.7
2018-09-01T04:19:35.565Z,95819.2
2018-09-01T04:20:38.007Z,95817.5
2018-09-01T04:21:40.430Z,95826.1
2018-09-01T04:22:42.591Z,95821.6
2018-09-01T04:23:45.030Z,95820.5
2018-09-01T04:24:47.471Z,95823.1
2018-09-01T04:25:49.902Z,95818.4
2018-09-01T04:26:52.060Z,95820.7
2018-09-01T04:27:54.525Z,95813.8
2018-09-01T04:28:56.969Z,95816.9
2018-09-01T04:29:59.136Z,95816.5
2018-09-01T04:31:01.586Z,95818
2018-09-01T04:32:04.359Z,95819.1
2018-09-01T04:33:07.033Z,95817
2018-09-01T04:34:09.200Z,95820.8
2018-09-01T04:35:11.641Z,95818.7
2018-09-01T04:36:14.083Z,95820.2
2018-09-01T04:37:16.236Z,95818.1
2018-09-01T04:38:18.665Z,95819.1
2018-09-01T04:39:20.856Z,95819.8
2018-09-01T04:40:23.281Z,95821.1
2018-09-01T04:41:25.716Z,95816.9
2018-09-01T04:42:27.883Z,95818.8
2018-09-01T04:43:30.328Z,95815.8
2018-09-01T04:44:32.769Z,95819
2018-09-01T04:45:35.198Z,95818.1
2018-09-01T04:46:37.630Z,95809.3
2018-09-01T04:47:40.076Z,95811.4
2018-09-01T04:48:42.511Z,95811.6
2018-09-01T04:49:44.946Z,95809.5
2018-09-01T04:50:47.365Z,95811.9
2018-09-01T04:51:49.814Z,95812.4
2018-09-01T04:52:52.246Z,95810.5
2018-09-01T04:53:54.676Z,95818.4
2018-09-01T04:54:57.106Z,95820.1
2018-09-01T04:55:59.536Z,95819.2
2018-09-01T04:57:01.993Z,95819.7
2018-09-01T04:58:03.863Z,95823.8
2018-09-01T04:59:06.294Z,95821.8
2018-09-01T05:00:08.457Z,95827.3
2018-09-01T05:01:11.821Z,95823.5
2018-09-01T05:02:14.657Z,95817.1
2018-09-01T05:03:16.823Z,95825.5
2018-09-01T05:04:19.263Z,95822.1
2018-09-01T05:05:21.680Z,95824.8
2018-09-01T05:06:24.127Z,95821.9
2018-09-01T05:07:26.566Z,95819.9
2018-09-01T05:08:28.983Z,95821.7
2018-09-01T05:09:31.134Z,95821.1
2018-09-01T05:10:33.782Z,95818.2
2018-09-01T05:11:36.212Z,95820
2018-09-01T05:12:38.366Z,95819.4
2018-09-01T05:13:40.807Z,95819.4
2018-09-01T05:14:43.231Z,95824
2018-09-01T05:15:45.663Z,95820.5
2018-09-01T05:16:48.125Z,95822.7
2018-09-01T05:17:50.560Z,95820.7
2018-09-01T05:18:52.995Z,95817.8
2018-09-01T05:19:55.426Z,95819
2018-09-01T05:20:57.881Z,95819.7
2018-09-01T05:22:00.320Z,95825.7
2018-09-01T05:23:02.743Z,95822.9
2018-09-01T05:24:05.577Z,95828.2
2018-09-01T05:25:08.195Z,95827.8
2018-09-01T05:26:10.368Z,95827.9
2018-09-01T05:27:12.823Z,95827.2
2018-09-01T05:28:15.268Z,95830.3
2018-09-01T05:29:17.693Z,95833.9
2018-09-01T05:30:20.132Z,95832.8
2018-09-01T05:31:22.566Z,95839.4
2018-09-01T05:32:25.000Z,95838.2
2018-09-01T05:33:27.429Z,95841.3
2018-09-01T05:34:29.862Z,95840.2
2018-09-01T05:35:32.293Z,95843
2018-09-01T05:36:35.143Z,95841.6
2018-09-01T05:37:37.686Z,95841.8
2018-09-01T05:38:40.126Z,95842
2018-09-01T05:39:42.556Z,95843.6
2018-09-01T05:40:44.988Z,95843.1
2018-09-01T05:41:47.156Z,95841.8
2018-09-01T05:42:49.584Z,95840.7
2018-09-01T05:43:52.212Z,95840.7
2018-09-01T05:44:54.640Z,95843.9
2018-09-01T05:45:57.096Z,95844.3
2018-09-01T05:46:59.524Z,95843.1
2018-09-01T05:48:01.713Z,95841.7
2018-09-01T05:49:03.874Z,95849.9
2018-09-01T05:50:06.307Z,95848.7
2018-09-01T05:51:08.731Z,95851.8
2018-09-01T05:52:11.167Z,95848.7
2018-09-01T05:53:13.612Z,95846.1
2018-09-01T05:54:16.041Z,95852.7
2018-09-01T05:55:18.476Z,95854.8
2018-09-01T05:56:20.974Z,95849.9
2018-09-01T05:57:23.380Z,95854.5
2018-09-01T05:58:25.824Z,95855.3
2018-09-01T05:59:28.266Z,95855
2018-09-01T06:00:30.899Z,95854.9
2018-09-01T06:01:33.333Z,95853.5
2018-09-01T06:02:35.777Z,95853.9
2018-09-01T06:03:38.198Z,95854.3
2018-09-01T06:04:40.660Z,95857.8
2018-09-01T06:05:43.148Z,95854.5
2018-09-01T06:06:45.676Z,95855.7
2018-09-01T06:07:48.116Z,95859.3
2018-09-01T06:08:50.553Z,95859.2
2018-09-01T06:09:52.997Z,95861.2
2018-09-01T06:10:55.421Z,95858.5
2018-09-01T06:11:57.854Z,95864.5
2018-09-01T06:13:00.282Z,95860.8
2018-09-01T06:14:02.949Z,95863.4
2018-09-01T06:15:05.378Z,95864.5
2018-09-01T06:16:07.831Z,95869.5
2018-09-01T06:17:10.263Z,95870.4
2018-09-01T06:18:12.690Z,95869.1
2018-09-01T06:19:15.068Z,95870.2
2018-09-01T06:20:17.703Z,95870.7
2018-09-01T06:21:20.141Z,95867.7
2018-09-01T06:22:22.576Z,95866
2018-09-01T06:23:24.999Z,95867.5
2018-09-01T06:24:27.425Z,95864.3
2018-09-01T06:25:29.895Z,95870.7
2018-09-01T06:26:32.049Z,95867.5
2018-09-01T06:27:34.494Z,95867.7
2018-09-01T06:28:36.940Z,95866
2018-09-01T06:29:39.386Z,95866.4
2018-09-01T06:30:41.534Z,95866.1
2018-09-01T06:31:43.695Z,95860.8
2018-09-01T06:32:46.226Z,95861.3
2018-09-01T06:33:48.666Z,95863.5
2018-09-01T06:34:51.108Z,95865.7
2018-09-01T06:35:53.593Z,95860.1
2018-09-01T06:36:55.766Z,95855.5
2018-09-01T06:37:58.209Z,95854.7
2018-09-01T06:39:00.655Z,95853.2
2018-09-01T06:40:03.087Z,95851.1
2018-09-01T06:41:05.523Z,95855.8
2018-09-01T06:42:07.963Z,95849.1
2018-09-01T06:43:10.947Z,95850
2018-09-01T06:44:13.556Z,95850.2
2018-09-01T06:45:15.993Z,95850.9
2018-09-01T06:46:18.415Z,95852.6
2018-09-01T06:47:20.852Z,95851.1
2018-09-01T06:48:23.278Z,95849.3
2018-09-01T06:49:25.702Z,95851.9
2018-09-01T06:50:28.127Z,95849.9
2018-09-01T06:51:30.817Z,95854
2018-09-01T06:52:33.470Z,95859.6
2018-09-01T06:53:35.651Z,95856.6
2018-09-01T06:54:38.126Z,95857.3
2018-09-01T06:55:40.565Z,95856.7
2018-09-01T06:56:42.993Z,95861.4
2018-09-01T06:57:45.425Z,95864.8
2018-09-01T06:58:47.853Z,95864.8
2018-09-01T06:59:50.282Z,95870.4
2018-09-01T07:00:52.718Z,95870.5
2018-09-01T07:01:55.177Z,95873
2018-09-01T07:02:57.608Z,95876.5
2018-09-01T07:04:00.046Z,95875.9
2018-09-01T07:05:02.505Z,95877.9
2018-09-01T07:06:04.646Z,95878.6
2018-09-01T07:07:07.069Z,95882.6
2018-09-01T07:08:09.506Z,95879.2
2018-09-01T07:09:11.935Z,95886.3
2018-09-01T07:10:14.369Z,95891
2018-09-01T07:11:16.801Z,95894.5
2018-09-01T07:12:19.227Z,95897.3
2018-09-01T07:13:21.662Z,95896
2018-09-01T07:14:24.098Z,95894.6
2018-09-01T07:15:26.525Z,95893.5
2018-09-01T07:16:28.977Z,95891.9
2018-09-01T07:17:31.416Z,95896.6
2018-09-01T07:18:33.864Z,95896.1
2018-09-01T07:19:36.333Z,95895.8
2018-09-01T07:20:38.536Z,95897.4
2018-09-01T07:21:40.702Z,95901.3
2018-09-01T07:22:43.128Z,95895.3
2018-09-01T07:23:45.557Z,95903.3
2018-09-01T07:24:47.977Z,95902.4
2018-09-01T07:25:50.425Z,95903.7
2018-09-01T07:26:52.865Z,95906.1
2018-09-01T07:27:55.298Z,95905.9
2018-09-01T07:28:57.728Z,95909.2
2018-09-01T07:29:59.905Z,95911.5
2018-09-01T07:31:03.893Z,95914.5
2018-09-01T07:32:07.412Z,95915.1
2018-09-01T07:33:09.844Z,95917.9
2018-09-01T07:34:12.294Z,95918.9
2018-09-01T07:35:14.725Z,95918.8
2018-09-01T07:36:17.152Z,95923.7
2018-09-01T07:37:19.587Z,95923.3
2018-09-01T07:38:22.021Z,95927.5
2018-09-01T07:39:24.498Z,95928.4
2018-09-01T07:40:26.950Z,95927.6
2018-09-01T07:41:29.386Z,95927.8
2018-09-01T07:42:31.805Z,95926.6
2018-09-01T07:43:34.367Z,95923.7
2018-09-01T07:44:36.806Z,95921.9
2018-09-01T07:45:39.233Z,95925
2018-09-01T07:46:41.704Z,95928.8
2018-09-01T07:47:44.153Z,95927.9
2018-09-01T07:48:46.605Z,95937.7
2018-09-01T07:49:49.033Z,95936.1
2018-09-01T07:50:51.478Z,95939.7
2018-09-01T07:51:53.907Z,95938.1
2018-09-01T07:52:56.344Z,95933.8
2018-09-01T07:53:58.770Z,95931.5
2018-09-01T07:55:01.228Z,95933.1
2018-09-01T07:56:04.234Z,95926.6
2018-09-01T07:57:07.020Z,95929
2018-09-01T07:58:09.493Z,95930.7
2018-09-01T07:59:11.387Z,95927.2
2018-09-01T08:00:13.578Z,95926.5
2018-09-01T08:01:16.031Z,95922.3
2018-09-01T08:02:18.458Z,95926.6
2018-09-01T08:03:20.646Z,95932.7
2018-09-01T08:04:23.083Z,95932.8
2018-09-01T08:05:25.542Z,95932.5
2018-09-01T08:06:27.708Z,95935.4
2018-09-01T08:07:30.766Z,95932
2018-09-01T08:08:33.432Z,95936.8
2018-09-01T08:09:35.851Z,95936.9
2018-09-01T08:10:38.312Z,95935.2
2018-09-01T08:11:40.738Z,95938.7
2018-09-01T08:12:43.170Z,95937.4
2018-09-01T08:13:46.096Z,95936.9
2018-09-01T08:14:48.705Z,95938.6
2018-09-01T08:15:51.169Z,95934.7
2018-09-01T08:16:53.601Z,95940.2
2018-09-01T08:17:56.039Z,95942.2
2018-09-01T08:18:58.463Z,95945.3
2018-09-01T08:20:00.905Z,95947.8
2018-09-01T08:21:03.336Z,95944.4
2018-09-01T08:22:05.774Z,95946
2018-09-01T08:23:08.200Z,95946.9
2018-09-01T08:24:10.364Z,95950
2018-09-01T08:25:12.814Z,95949.9
2018-09-01T08:26:15.246Z,95953.8
2018-09-01T08:27:17.677Z,95944
2018-09-01T08:28:20.125Z,95947.5
2018-09-01T08:29:22.572Z,95954.9
2018-09-01T08:30:25.000Z,95953.2
2018-09-01T08:31:27.428Z,95948.3
2018-09-01T08:32:29.604Z,95952.4
2018-09-01T08:33:32.328Z,95954.7
2018-09-01T08:34:34.796Z,95953.9
2018-09-01T08:35:37.232Z,95956.1
2018-09-01T08:36:39.679Z,95958.7
2018-09-01T08:37:42.138Z,95960.3
2018-09-01T08:38:43.993Z,95958.4
2018-09-01T08:39:46.165Z,95957.3
2018-09-01T08:40:48.322Z,95959.6
2018-09-01T08:41:50.491Z,95962.2
2018-09-01T08:42:52.633Z,95959.2
2018-09-01T08:43:55.088Z,95961.2
2018-09-01T08:44:57.543Z,95965.7
2018-09-01T08:45:59.985Z,95963.7
2018-09-01T08:47:02.463Z,95964.9
2018-09-01T08:48:04.631Z,95967.7
2018-09-01T08:49:06.812Z,95963.8
2018-09-01T08:50:08.984Z,95965.3
2018-09-01T08:51:11.413Z,95968.9
2018-09-01T08:52:13.585Z,95965.9
2018-09-01T08:53:16.029Z,95966.2
2018-09-01T08:54:18.449Z,95967.6
2018-09-01T08:55:20.870Z,95969.6
2018-09-01T08:56:23.419Z,95973.2
2018-09-01T08:57:25.884Z,95967.4
2018-09-01T08:58:28.394Z,95968.4
2018-09-01T08:59:30.878Z,95967.4
2018-09-01T09:00:33.346Z,95978.6
2018-09-01T09:01:35.851Z,95972.7
2018-09-01T09:02:37.985Z,95979.1
2018-09-01T09:03:40.424Z,95982.6
2018-09-01T09:04:42.874Z,95981.9
2018-09-01T09:05:45.753Z,95985.1
2018-09-01T09:06:48.327Z,95984.2
2018-09-01T09:07:50.757Z,95985.4
2018-09-01T09:08:53.202Z,95983.1
2018-09-01T09:09:55.666Z,95985.7
2018-09-01T09:10:58.119Z,95984.4
2018-09-01T09:12:00.557Z,95984.4
2018-09-01T09:13:02.993Z,95986
2018-09-01T09:14:05.175Z,95986.3
2018-09-01T09:15:07.621Z,95975.8
2018-09-01T09:16:10.046Z,95980.3
2018-09-01T09:17:12.496Z,95979.1
2018-09-01T09:18:14.626Z,95976.4
2018-09-01T09:19:17.062Z,95981.4
2018-09-01T09:20:19.500Z,95981
2018-09-01T09:21:21.969Z,95990.5
2018-09-01T09:22:24.405Z,95984.5
2018-09-01T09:23:26.845Z,95986.1
2018-09-01T09:24:28.720Z,95986.9
2018-09-01T09:25:30.611Z,95989.6
2018-09-01T09:26:33.030Z,95991.1
2018-09-01T09:27:35.471Z,95993.6
2018-09-01T09:28:37.918Z,95994.8
2018-09-01T09:29:40.354Z,95993
2018-09-01T09:30:42.819Z,95993.4
2018-09-01T09:31:45.266Z,95993.8
2018-09-01T09:32:47.695Z,95988.4
2018-09-01T09:33:50.124Z,95991.5
2018-09-01T09:34:52.568Z,95990.4
2018-09-01T09:35:55.029Z,95988.8
2018-09-01T09:36:57.216Z,95992.9
2018-09-01T09:37:59.689Z,95991.4
2018-09-01T09:39:02.145Z,95994.9
2018-09-01T09:40:04.572Z,95994.1
2018-09-01T09:41:07.039Z,95991.4
2018-09-01T09:42:09.475Z,95993.7
2018-09-01T09:43:11.898Z,95991.4
2018-09-01T09:44:14.351Z,95988.6
2018-09-01T09:45:16.792Z,95988
2018-09-01T09:46:19.220Z,95982.9
2018-09-01T09:47:21.663Z,95979.4
2018-09-01T09:48:24.120Z,95982.6
2018-09-01T09:49:26.566Z,95973.7
2018-09-01T09:50:29.008Z,95975.5
2018-09-01T09:51:31.452Z,95971.6
2018-09-01T09:52:33.910Z,95972.8
2018-09-01T09:53:36.361Z,95972.6
2018-09-01T09:54:38.545Z,95973.8
2018-09-01T09:55:40.992Z,95986
2018-09-01T09:56:43.415Z,95975
2018-09-01T09:57:45.841Z,95980.6
2018-09-01T09:58:48.275Z,95983.6
2018-09-01T09:59:50.733Z,95984.7
2018-09-01T10:00:53.346Z,95982
2018-09-01T10:01:55.803Z,95981.9
2018-09-01T10:02:58.257Z,95987
2018-09-01T10:04:00.718Z,95987
2018-09-01T10:05:03.471Z,95985.1
2018-09-01T10:06:05.905Z,95982.6
2018-09-01T10:07:08.366Z,95978.6
2018-09-01T10:08:10.519Z,95980.7
2018-09-01T10:09:12.942Z,95976.4
2018-09-01T10:10:15.102Z,95981.5
2018-09-01T10:11:17.535Z,95980.7
2018-09-01T10:12:20.005Z,95981.9
2018-09-01T10:13:22.435Z,95985.3
2018-09-01T10:14:24.949Z,95984.2
2018-09-01T10:15:27.383Z,95984
2018-09-01T10:16:29.878Z,95986.7
2018-09-01T10:17:32.328Z,95989.1
2018-09-01T10:18:34.777Z,95984.7
2018-09-01T10:19:37.229Z,95986.3
2018-09-01T10:20:40.113Z,95985.7
2018-09-01T10:21:42.913Z,95984.4
2018-09-01T10:22:45.093Z,95986.2
2018-09-01T10:23:47.533Z,95989.2
2018-09-01T10:24:49.972Z,95984.5
2018-09-01T10:25:52.415Z,95987.8
2018-09-01T10:26:55.015Z,95987
2018-09-01T10:27:57.495Z,95986.2
2018-09-01T10:28:59.950Z,95988.3
2018-09-01T10:30:02.409Z,95989.5
2018-09-01T10:31:04.839Z,95989.9
2018-09-01T10:32:07.268Z,95989.2
2018-09-01T10:33:09.719Z,95988
2018-09-01T10:34:11.916Z,95996.5
2018-09-01T10:35:14.069Z,95995.6
2018-09-01T10:36:16.495Z,96000.5
2018-09-01T10:37:18.667Z,95997.5
2018-09-01T10:38:21.330Z,95997.8
2018-09-01T10:39:23.827Z,96000.8
2018-09-01T10:40:25.990Z,96001.8
2018-09-01T10:41:28.160Z,96000.8
2018-09-01T10:42:30.616Z,95998.8
2018-09-01T10:43:33.043Z,96004.3
2018-09-01T10:44:35.263Z,96004
2018-09-01T10:45:37.419Z,96003.7
2018-09-01T10:46:39.855Z,96004.3
2018-09-01T10:47:42.285Z,96007.3
2018-09-01T10:48:44.731Z,96009.3
2018-09-01T10:49:47.162Z,96006.8
2018-09-01T10:50:49.599Z,96005
2018-09-01T10:51:52.055Z,96010.2
2018-09-01T10:52:54.199Z,96017
2018-09-01T10:53:56.367Z,96012.2
2018-09-01T10:54:58.814Z,96008.8
2018-09-01T10:56:01.253Z,96012.9
2018-09-01T10:57:03.693Z,96013
2018-09-01T10:58:06.131Z,96006.6
2018-09-01T10:59:09.796Z,96008.4
2018-09-01T11:00:12.671Z,96012.1
2018-09-01T11:01:14.833Z,96010.5
2018-09-01T11:02:17.277Z,96013.7
2018-09-01T11:03:19.717Z,96013.8
2018-09-01T11:04:22.178Z,96016.2
2018-09-01T11:05:24.699Z,96018.8
2018-09-01T11:06:27.181Z,96018.6
2018-09-01T11:07:29.723Z,96017.5
2018-09-01T11:08:31.871Z,96020
2018-09-01T11:09:34.016Z,96018.9
2018-09-01T11:10:35.903Z,96024
2018-09-01T11:11:38.347Z,96021.9
2018-09-01T11:12:40.765Z,96025.5
2018-09-01T11:13:43.469Z,96029.9
2018-09-01T11:14:45.607Z,96032.8
2018-09-01T11:15:47.813Z,96033
2018-09-01T11:16:50.253Z,96028.3
2018-09-01T11:17:52.715Z,96031.3
2018-09-01T11:18:55.170Z,96033.1
2018-09-01T11:19:57.627Z,96029.4
2018-09-01T11:21:00.568Z,96027
2018-09-01T11:22:03.115Z,96026.5
2018-09-01T11:23:05.017Z,96030.1
2018-09-01T11:24:07.187Z,96034
2018-09-01T11:25:09.347Z,96038.5
2018-09-01T11:26:11.786Z,96043
2018-09-01T11:27:14.266Z,96044.6
2018-09-01T11:28:16.896Z,96045.9
2018-09-01T11:29:19.360Z,96043.4
2018-09-01T11:30:21.777Z,96049.6
2018-09-01T11:31:24.216Z,96048
2018-09-01T11:32:26.662Z,96052.3
2018-09-01T11:33:28.809Z,96048.4
2018-09-01T11:34:31.328Z,96047.4
2018-09-01T11:35:33.224Z,96042.6
2018-09-01T11:36:35.818Z,96051.9
2018-09-01T11:37:38.314Z,96044.4
2018-09-01T11:38:40.470Z,96047.4
2018-09-01T11:39:42.924Z,96044.4
2018-09-01T11:40:45.256Z,96042.1
2018-09-01T11:41:47.684Z,96042.6
2018-09-01T11:42:50.851Z,96041.3
2018-09-01T11:43:53.590Z,96038.8
2018-09-01T11:44:56.038Z,96039.3
2018-09-01T11:45:58.194Z,96037.9
2018-09-01T11:47:00.667Z,96043.3
2018-09-01T11:48:03.111Z,96042.1
2018-09-01T11:49:05.533Z,96039
2018-09-01T11:50:07.981Z,96041.2
2018-09-01T11:51:09.855Z,96040.6
2018-09-01T11:52:12.352Z,96042.7
2018-09-01T11:53:15.537Z,96039.7
2018-09-01T11:54:18.442Z,96037.6
2018-09-01T11:55:20.877Z,96038.9
2018-09-01T11:56:23.337Z,96038.1
2018-09-01T11:57:25.785Z,96044.2
2018-09-01T11:58:28.396Z,96034.3
2018-09-01T11:59:30.874Z,96037
2018-09-01T12:00:33.306Z,96039.5
2018-09-01T12:01:35.734Z,96040.5
2018-09-01T12:02:38.163Z,96043.7
2018-09-01T12:03:40.699Z,96048.8
2018-09-01T12:04:43.145Z,96044.3
2018-09-01T12:05:45.590Z,96047.1
2018-09-01T12:06:48.022Z,96049.4
2018-09-01T12:07:50.177Z,96056.5
2018-09-01T12:08:52.993Z,96052.9
2018-09-01T12:09:55.543Z,96052
2018-09-01T12:10:57.996Z,96054.1
2018-09-01T12:12:00.312Z,96055.7
2018-09-01T12:13:02.805Z,96063.3
2018-09-01T12:14:05.517Z,96056.3
2018-09-01T12:15:07.966Z,96061.6
2018-09-01T12:16:10.397Z,96058.9
2018-09-01T12:17:12.934Z,96065.3
2018-09-01T12:18:14.897Z,96066.2
2018-09-01T12:19:17.321Z,96065
2018-09-01T12:20:19.756Z,96069.7
2018-09-01T12:21:22.206Z,96072.4
2018-09-01T12:22:25.253Z,96070.1
2018-09-01T12:23:27.494Z,96070.7
2018-09-01T12:24:29.914Z,96073
2018-09-01T12:25:32.339Z,96077
2018-09-01T12:26:34.796Z,96073.9
2018-09-01T12:27:37.225Z,96075.9
2018-09-01T12:28:39.667Z,96074.2
2018-09-01T12:29:42.116Z,96073.6
2018-09-01T12:30:44.551Z,96076.3
2018-09-01T12:31:46.999Z,96072.4
2018-09-01T12:32:49.441Z,96072.1
2018-09-01T12:33:51.875Z,96066.9
2018-09-01T12:34:54.318Z,96068
2018-09-01T12:35:56.774Z,96065
2018-09-01T12:36:58.934Z,96067.2
2018-09-01T12:38:01.576Z,96068.3
2018-09-01T12:39:04.013Z,96070.9
2018-09-01T12:40:06.457Z,96066.3